sensor_id;sensor_type;location;lat;lon;timestamp;pressure;altitude;pressure_sealevel;temperature;humidity
21779;BME280;11050;52.222;20.916;2022-07-23T00:00:02;100094.78;;;23.96;64.97
21779;BME280;11050;52.222;20.916;2022-07-23T00:02:28;100092.06;;;23.88;65.86
21779;BME280;11050;52.222;20.916;2022-07-23T00:04:54;100099.66;;;23.87;66.12
21779;BME280;11050;52.222;20.916;2022-07-23T00:07:19;100092.28;;;23.83;66.78
21779;BME280;11050;52.222;20.916;2022-07-23T00:09:45;100106.22;;;23.79;67.56
21779;BME280;11050;52.222;20.916;2022-07-23T00:12:11;100092.84;;;23.76;67.59
21779;BME280;11050;52.222;20.916;2022-07-23T00:14:37;100103.47;;;23.71;68.24
21779;BME280;11050;52.222;20.916;2022-07-23T00:17:02;100095.63;;;23.64;68.94
21779;BME280;11050;52.222;20.916;2022-07-23T00:19:28;100098.16;;;23.57;69.58
21779;BME280;11050;52.222;20.916;2022-07-23T00:21:54;100096.88;;;23.55;70.00
21779;BME280;11050;52.222;20.916;2022-07-23T00:24:20;100093.97;;;23.51;70.53
21779;BME280;11050;52.222;20.916;2022-07-23T00:26:46;100097.44;;;23.48;70.84
21779;BME280;11050;52.222;20.916;2022-07-23T00:29:12;100102.09;;;23.44;71.44
21779;BME280;11050;52.222;20.916;2022-07-23T00:31:38;100095.75;;;23.35;72.33
21779;BME280;11050;52.222;20.916;2022-07-23T00:34:03;100101.06;;;23.28;72.67
21779;BME280;11050;52.222;20.916;2022-07-23T00:36:29;100096.00;;;23.21;73.40
21779;BME280;11050;52.222;20.916;2022-07-23T00:38:57;100093.06;;;23.18;74.24
21779;BME280;11050;52.222;20.916;2022-07-23T00:41:23;100092.91;;;23.14;74.76
21779;BME280;11050;52.222;20.916;2022-07-23T00:43:49;100091.63;;;23.12;75.27
21779;BME280;11050;52.222;20.916;2022-07-23T00:46:22;100093.94;;;23.10;76.42
21779;BME280;11050;52.222;20.916;2022-07-23T00:48:48;100090.34;;;23.09;76.84
21779;BME280;11050;52.222;20.916;2022-07-23T00:51:17;100093.00;;;23.06;76.57
21779;BME280;11050;52.222;20.916;2022-07-23T00:53:44;100096.13;;;23.04;77.33
21779;BME280;11050;52.222;20.916;2022-07-23T00:56:10;100106.41;;;23.00;77.29
21779;BME280;11050;52.222;20.916;2022-07-23T00:58:39;100100.16;;;22.95;77.05
21779;BME280;11050;52.222;20.916;2022-07-23T01:01:07;100101.31;;;22.94;76.97
21779;BME280;11050;52.222;20.916;2022-07-23T01:03:33;100100.84;;;22.92;77.15
21779;BME280;11050;52.222;20.916;2022-07-23T01:05:59;100103.16;;;22.90;77.08
21779;BME280;11050;52.222;20.916;2022-07-23T01:08:25;100097.56;;;22.90;77.21
21779;BME280;11050;52.222;20.916;2022-07-23T01:10:51;100100.56;;;22.85;77.84
21779;BME280;11050;52.222;20.916;2022-07-23T01:13:17;100101.59;;;22.80;77.80
21779;BME280;11050;52.222;20.916;2022-07-23T01:15:43;100105.06;;;22.77;78.56
21779;BME280;11050;52.222;20.916;2022-07-23T01:18:09;100108.53;;;22.74;78.71
21779;BME280;11050;52.222;20.916;2022-07-23T01:20:36;100107.25;;;22.72;78.81
21779;BME280;11050;52.222;20.916;2022-07-23T01:23:02;100102.66;;;22.67;79.36
21779;BME280;11050;52.222;20.916;2022-07-23T01:25:28;100106.00;;;22.61;80.27
21779;BME280;11050;52.222;20.916;2022-07-23T01:27:54;100105.34;;;22.55;80.20
21779;BME280;11050;52.222;20.916;2022-07-23T01:30:20;100108.31;;;22.50;80.60
21779;BME280;11050;52.222;20.916;2022-07-23T01:32:46;100109.00;;;22.47;81.00
21779;BME280;11050;52.222;20.916;2022-07-23T01:35:12;100103.75;;;22.45;80.29
21779;BME280;11050;52.222;20.916;2022-07-23T01:37:38;100118.91;;;22.44;80.77
21779;BME280;11050;52.222;20.916;2022-07-23T01:40:05;100115.94;;;22.41;80.81
21779;BME280;11050;52.222;20.916;2022-07-23T01:42:31;100116.66;;;22.38;80.87
21779;BME280;11050;52.222;20.916;2022-07-23T01:44:57;100118.59;;;22.37;81.17
21779;BME280;11050;52.222;20.916;2022-07-23T01:47:23;100119.28;;;22.34;81.02
21779;BME280;11050;52.222;20.916;2022-07-23T01:49:49;100112.72;;;22.30;81.27
21779;BME280;11050;52.222;20.916;2022-07-23T01:52:15;100124.22;;;22.29;80.94
21779;BME280;11050;52.222;20.916;2022-07-23T01:54:42;100109.75;;;22.27;80.80
21779;BME280;11050;52.222;20.916;2022-07-23T01:57:08;100104.00;;;22.23;81.22
21779;BME280;11050;52.222;20.916;2022-07-23T01:59:35;100104.84;;;22.24;81.37
21779;BME280;11050;52.222;20.916;2022-07-23T02:02:01;100107.00;;;22.18;81.92
21779;BME280;11050;52.222;20.916;2022-07-23T02:04:29;100102.38;;;22.14;81.82
21779;BME280;11050;52.222;20.916;2022-07-23T02:06:54;100102.72;;;22.12;82.36
21779;BME280;11050;52.222;20.916;2022-07-23T02:09:20;100102.59;;;22.09;82.55
21779;BME280;11050;52.222;20.916;2022-07-23T02:11:46;100104.56;;;22.08;82.79
21779;BME280;11050;52.222;20.916;2022-07-23T02:14:12;100095.19;;;22.04;83.41
21779;BME280;11050;52.222;20.916;2022-07-23T02:16:38;100099.16;;;22.03;83.56
21779;BME280;11050;52.222;20.916;2022-07-23T02:19:04;100096.53;;;21.98;83.80
21779;BME280;11050;52.222;20.916;2022-07-23T02:21:30;100094.75;;;21.94;84.33
21779;BME280;11050;52.222;20.916;2022-07-23T02:23:57;100094.59;;;21.90;84.60
21779;BME280;11050;52.222;20.916;2022-07-23T02:26:22;100100.53;;;21.89;84.83
21779;BME280;11050;52.222;20.916;2022-07-23T02:28:48;100099.88;;;21.83;85.76
21779;BME280;11050;52.222;20.916;2022-07-23T02:31:14;100094.94;;;21.80;85.74
21779;BME280;11050;52.222;20.916;2022-07-23T02:33:40;100096.41;;;21.78;86.47
21779;BME280;11050;52.222;20.916;2022-07-23T02:36:06;100089.00;;;21.73;86.58
21779;BME280;11050;52.222;20.916;2022-07-23T02:38:32;100089.34;;;21.72;86.82
21779;BME280;11050;52.222;20.916;2022-07-23T02:40:57;100085.22;;;21.69;87.25
21779;BME280;11050;52.222;20.916;2022-07-23T02:43:23;100092.78;;;21.68;87.67
21779;BME280;11050;52.222;20.916;2022-07-23T02:45:49;100085.06;;;21.65;87.65
21779;BME280;11050;52.222;20.916;2022-07-23T02:48:15;100081.94;;;21.67;87.80
21779;BME280;11050;52.222;20.916;2022-07-23T02:50:40;100084.72;;;21.67;87.82
21779;BME280;11050;52.222;20.916;2022-07-23T02:53:06;100079.16;;;21.67;88.10
21779;BME280;11050;52.222;20.916;2022-07-23T02:55:32;100075.84;;;21.65;88.13
21779;BME280;11050;52.222;20.916;2022-07-23T02:57:58;100085.06;;;21.65;88.29
21779;BME280;11050;52.222;20.916;2022-07-23T03:00:24;100077.50;;;21.66;88.25
21779;BME280;11050;52.222;20.916;2022-07-23T03:02:49;100077.84;;;21.64;88.49
21779;BME280;11050;52.222;20.916;2022-07-23T03:05:15;100075.84;;;21.65;88.63
21779;BME280;11050;52.222;20.916;2022-07-23T03:07:41;100079.31;;;21.62;88.89
21779;BME280;11050;52.222;20.916;2022-07-23T03:10:07;100063.69;;;21.61;88.88
21779;BME280;11050;52.222;20.916;2022-07-23T03:12:33;100075.38;;;21.63;89.15
21779;BME280;11050;52.222;20.916;2022-07-23T03:14:59;100084.59;;;21.63;89.07
21779;BME280;11050;52.222;20.916;2022-07-23T03:17:24;100082.63;;;21.64;89.46
21779;BME280;11050;52.222;20.916;2022-07-23T03:19:50;100080.31;;;21.66;89.43
21779;BME280;11050;52.222;20.916;2022-07-23T03:22:16;100087.03;;;21.65;89.55
21779;BME280;11050;52.222;20.916;2022-07-23T03:24:42;100084.25;;;21.65;89.94
21779;BME280;11050;52.222;20.916;2022-07-23T03:27:21;100088.22;;;21.64;90.34
21779;BME280;11050;52.222;20.916;2022-07-23T03:29:49;100082.97;;;21.62;90.35
21779;BME280;11050;52.222;20.916;2022-07-23T03:32:14;100093.31;;;21.62;90.55
21779;BME280;11050;52.222;20.916;2022-07-23T03:34:40;100084.44;;;21.60;90.84
21779;BME280;11050;52.222;20.916;2022-07-23T03:37:06;100090.50;;;21.62;90.93
21779;BME280;11050;52.222;20.916;2022-07-23T03:39:32;100085.91;;;21.66;90.72
21779;BME280;11050;52.222;20.916;2022-07-23T03:41:58;100097.59;;;21.68;90.70
21779;BME280;11050;52.222;20.916;2022-07-23T03:44:24;100086.41;;;21.68;91.20
21779;BME280;11050;52.222;20.916;2022-07-23T03:46:49;100096.56;;;21.73;90.84
21779;BME280;11050;52.222;20.916;2022-07-23T03:49:16;100103.47;;;21.75;90.62
21779;BME280;11050;52.222;20.916;2022-07-23T03:51:42;100103.97;;;21.77;90.26
21779;BME280;11050;52.222;20.916;2022-07-23T03:54:07;100109.75;;;21.81;90.17
21779;BME280;11050;52.222;20.916;2022-07-23T03:56:33;100102.84;;;21.87;89.60
21779;BME280;11050;52.222;20.916;2022-07-23T03:58:59;100106.13;;;21.89;89.64
21779;BME280;11050;52.222;20.916;2022-07-23T04:01:25;100110.06;;;21.88;89.42
21779;BME280;11050;52.222;20.916;2022-07-23T04:03:50;100105.63;;;21.87;89.75
21779;BME280;11050;52.222;20.916;2022-07-23T04:06:16;100102.84;;;21.87;89.53
21779;BME280;11050;52.222;20.916;2022-07-23T04:08:42;100102.50;;;21.88;89.49
21779;BME280;11050;52.222;20.916;2022-07-23T04:11:07;100106.63;;;21.91;89.52
21779;BME280;11050;52.222;20.916;2022-07-23T04:13:33;100096.41;;;21.95;89.12
21779;BME280;11050;52.222;20.916;2022-07-23T04:15:59;100103.44;;;22.01;88.61
21779;BME280;11050;52.222;20.916;2022-07-23T04:18:25;100105.59;;;22.04;88.17
21779;BME280;11050;52.222;20.916;2022-07-23T04:20:51;100101.44;;;22.10;87.75
21779;BME280;11050;52.222;20.916;2022-07-23T04:23:17;100097.81;;;22.09;87.48
21779;BME280;11050;52.222;20.916;2022-07-23T04:25:43;100105.19;;;22.14;87.62
21779;BME280;11050;52.222;20.916;2022-07-23T04:28:09;100107.16;;;22.22;86.65
21779;BME280;11050;52.222;20.916;2022-07-23T04:30:35;100103.69;;;22.25;86.63
21779;BME280;11050;52.222;20.916;2022-07-23T04:33:01;100105.59;;;22.33;86.13
21779;BME280;11050;52.222;20.916;2022-07-23T04:35:31;100113.00;;;22.37;85.77
21779;BME280;11050;52.222;20.916;2022-07-23T04:37:56;100105.09;;;22.39;85.73
21779;BME280;11050;52.222;20.916;2022-07-23T04:40:22;100100.94;;;22.45;85.45
21779;BME280;11050;52.222;20.916;2022-07-23T04:42:48;100100.41;;;22.52;84.74
21779;BME280;11050;52.222;20.916;2022-07-23T04:45:14;100105.53;;;22.58;84.74
21779;BME280;11050;52.222;20.916;2022-07-23T04:47:53;100099.03;;;22.67;84.46
21779;BME280;11050;52.222;20.916;2022-07-23T04:50:19;100094.03;;;22.72;83.86
21779;BME280;11050;52.222;20.916;2022-07-23T04:52:48;100099.81;;;22.76;83.34
21779;BME280;11050;52.222;20.916;2022-07-23T04:55:15;100103.72;;;22.83;83.09
21779;BME280;11050;52.222;20.916;2022-07-23T04:57:42;100105.50;;;22.88;82.87
21779;BME280;11050;52.222;20.916;2022-07-23T05:00:09;100099.69;;;22.93;82.27
21779;BME280;11050;52.222;20.916;2022-07-23T05:02:35;100109.00;;;23.05;81.56
21779;BME280;11050;52.222;20.916;2022-07-23T05:05:01;100106.59;;;23.16;81.09
21779;BME280;11050;52.222;20.916;2022-07-23T05:07:26;100110.63;;;23.27;80.63
21779;BME280;11050;52.222;20.916;2022-07-23T05:09:52;100113.53;;;23.39;79.80
21779;BME280;11050;52.222;20.916;2022-07-23T05:12:18;100108.31;;;23.49;78.82
21779;BME280;11050;52.222;20.916;2022-07-23T05:14:44;100113.03;;;23.58;79.12
21779;BME280;11050;52.222;20.916;2022-07-23T05:17:09;100112.94;;;23.66;78.20
21779;BME280;11050;52.222;20.916;2022-07-23T05:19:35;100105.72;;;23.77;76.93
21779;BME280;11050;52.222;20.916;2022-07-23T05:22:02;100100.13;;;23.89;76.38
21779;BME280;11050;52.222;20.916;2022-07-23T05:24:28;100107.91;;;24.04;75.30
21779;BME280;11050;52.222;20.916;2022-07-23T05:26:54;100105.63;;;24.18;74.34
21779;BME280;11050;52.222;20.916;2022-07-23T05:29:19;100102.38;;;24.28;74.27
21779;BME280;11050;52.222;20.916;2022-07-23T05:31:45;100102.34;;;24.40;73.75
21779;BME280;11050;52.222;20.916;2022-07-23T05:34:11;100104.81;;;24.54;73.75
21779;BME280;11050;52.222;20.916;2022-07-23T05:36:37;100097.53;;;24.65;72.88
21779;BME280;11050;52.222;20.916;2022-07-23T05:39:03;100104.72;;;24.75;71.47
21779;BME280;11050;52.222;20.916;2022-07-23T05:41:29;100102.13;;;24.82;70.76
21779;BME280;11050;52.222;20.916;2022-07-23T05:43:55;100092.28;;;24.88;70.19
21779;BME280;11050;52.222;20.916;2022-07-23T05:46:21;100097.66;;;24.93;69.93
21779;BME280;11050;52.222;20.916;2022-07-23T05:48:47;100098.34;;;25.02;69.48
21779;BME280;11050;52.222;20.916;2022-07-23T05:51:21;100100.75;;;25.15;68.97
21779;BME280;11050;52.222;20.916;2022-07-23T05:53:47;100091.09;;;25.28;68.59
21779;BME280;11050;52.222;20.916;2022-07-23T05:56:13;100097.94;;;25.40;67.55
21779;BME280;11050;52.222;20.916;2022-07-23T05:58:39;100099.50;;;25.53;68.43
21779;BME280;11050;52.222;20.916;2022-07-23T06:01:05;100101.47;;;25.64;68.45
21779;BME280;11050;52.222;20.916;2022-07-23T06:03:31;100098.38;;;25.69;67.09
21779;BME280;11050;52.222;20.916;2022-07-23T06:05:57;100093.56;;;25.70;66.49
21779;BME280;11050;52.222;20.916;2022-07-23T06:08:22;100101.94;;;25.82;67.38
21779;BME280;11050;52.222;20.916;2022-07-23T06:10:48;100104.97;;;25.89;66.88
21779;BME280;11050;52.222;20.916;2022-07-23T06:13:14;100096.34;;;25.97;65.95
21779;BME280;11050;52.222;20.916;2022-07-23T06:15:40;100101.47;;;26.07;65.65
21779;BME280;11050;52.222;20.916;2022-07-23T06:18:06;100097.84;;;26.22;65.29
21779;BME280;11050;52.222;20.916;2022-07-23T06:20:32;100103.13;;;26.40;65.55
21779;BME280;11050;52.222;20.916;2022-07-23T06:22:57;100105.13;;;26.55;64.14
21779;BME280;11050;52.222;20.916;2022-07-23T06:25:23;100103.38;;;26.66;63.81
21779;BME280;11050;52.222;20.916;2022-07-23T06:27:49;100102.75;;;26.72;62.17
21779;BME280;11050;52.222;20.916;2022-07-23T06:30:15;100105.91;;;26.86;62.17
21779;BME280;11050;52.222;20.916;2022-07-23T06:32:43;100101.31;;;26.97;61.65
21779;BME280;11050;52.222;20.916;2022-07-23T06:35:09;100104.03;;;27.09;61.68
21779;BME280;11050;52.222;20.916;2022-07-23T06:37:35;100107.91;;;27.21;61.79
21779;BME280;11050;52.222;20.916;2022-07-23T06:40:01;100107.41;;;27.34;61.67
21779;BME280;11050;52.222;20.916;2022-07-23T06:42:28;100109.66;;;27.44;59.90
21779;BME280;11050;52.222;20.916;2022-07-23T06:44:53;100119.53;;;27.54;59.27
21779;BME280;11050;52.222;20.916;2022-07-23T06:47:19;100109.50;;;27.56;59.99
21779;BME280;11050;52.222;20.916;2022-07-23T06:49:45;100109.19;;;27.61;59.86
21779;BME280;11050;52.222;20.916;2022-07-23T06:52:11;100110.16;;;27.69;58.98
21779;BME280;11050;52.222;20.916;2022-07-23T06:54:37;100103.41;;;27.73;58.26
21779;BME280;11050;52.222;20.916;2022-07-23T06:57:03;100111.94;;;27.77;57.93
21779;BME280;11050;52.222;20.916;2022-07-23T06:59:29;100106.81;;;27.82;58.07
21779;BME280;11050;52.222;20.916;2022-07-23T07:01:55;100105.03;;;27.93;58.00
21779;BME280;11050;52.222;20.916;2022-07-23T07:04:20;100105.22;;;28.04;57.35
21779;BME280;11050;52.222;20.916;2022-07-23T07:06:46;100093.63;;;28.09;57.16
21779;BME280;11050;52.222;20.916;2022-07-23T07:09:12;100105.44;;;28.15;56.36
21779;BME280;11050;52.222;20.916;2022-07-23T07:11:38;100101.66;;;28.30;56.02
21779;BME280;11050;52.222;20.916;2022-07-23T07:14:04;100100.59;;;28.38;55.32
21779;BME280;11050;52.222;20.916;2022-07-23T07:16:30;100101.91;;;28.44;54.89
21779;BME280;11050;52.222;20.916;2022-07-23T07:18:55;100092.44;;;28.55;54.64
21779;BME280;11050;52.222;20.916;2022-07-23T07:21:21;100092.28;;;28.71;54.50
21779;BME280;11050;52.222;20.916;2022-07-23T07:23:47;100097.31;;;28.81;52.33
21779;BME280;11050;52.222;20.916;2022-07-23T07:26:13;100092.13;;;28.86;52.46
21779;BME280;11050;52.222;20.916;2022-07-23T07:28:38;100087.25;;;28.87;48.27
21779;BME280;11050;52.222;20.916;2022-07-23T07:31:04;100084.56;;;28.94;50.05
21779;BME280;11050;52.222;20.916;2022-07-23T07:33:30;100085.09;;;29.03;50.64
21779;BME280;11050;52.222;20.916;2022-07-23T07:35:56;100087.28;;;29.13;47.54
21779;BME280;11050;52.222;20.916;2022-07-23T07:38:22;100082.56;;;29.21;47.49
21779;BME280;11050;52.222;20.916;2022-07-23T07:40:48;100088.25;;;29.24;48.87
21779;BME280;11050;52.222;20.916;2022-07-23T07:43:14;100096.41;;;29.29;47.94
21779;BME280;11050;52.222;20.916;2022-07-23T07:45:39;100089.97;;;29.32;45.36
21779;BME280;11050;52.222;20.916;2022-07-23T07:48:05;100094.03;;;29.35;46.10
21779;BME280;11050;52.222;20.916;2022-07-23T07:50:31;100094.88;;;29.35;47.57
21779;BME280;11050;52.222;20.916;2022-07-23T07:52:57;100097.06;;;29.49;47.55
21779;BME280;11050;52.222;20.916;2022-07-23T07:55:22;100101.28;;;29.62;47.84
21779;BME280;11050;52.222;20.916;2022-07-23T07:57:48;100098.16;;;29.70;47.11
21779;BME280;11050;52.222;20.916;2022-07-23T08:00:14;100101.50;;;29.79;47.56
21779;BME280;11050;52.222;20.916;2022-07-23T08:02:47;100115.66;;;29.79;46.56
21779;BME280;11050;52.222;20.916;2022-07-23T08:05:14;100102.34;;;29.83;47.04
21779;BME280;11050;52.222;20.916;2022-07-23T08:07:40;100102.06;;;29.92;46.88
21779;BME280;11050;52.222;20.916;2022-07-23T08:10:08;100096.06;;;30.01;47.12
21779;BME280;11050;52.222;20.916;2022-07-23T08:12:52;100106.34;;;30.16;46.50
21779;BME280;11050;52.222;20.916;2022-07-23T08:15:23;100103.31;;;30.35;45.38
21779;BME280;11050;52.222;20.916;2022-07-23T08:17:50;100097.69;;;30.38;44.91
21779;BME280;11050;52.222;20.916;2022-07-23T08:20:18;100104.22;;;30.46;44.49
21779;BME280;11050;52.222;20.916;2022-07-23T08:22:50;100102.59;;;30.41;44.27
21779;BME280;11050;52.222;20.916;2022-07-23T08:25:31;100102.22;;;30.46;45.11
21779;BME280;11050;52.222;20.916;2022-07-23T08:27:59;100106.34;;;30.56;44.44
21779;BME280;11050;52.222;20.916;2022-07-23T08:30:27;100116.56;;;30.64;43.81
21779;BME280;11050;52.222;20.916;2022-07-23T08:33:04;100109.72;;;30.75;44.04
21779;BME280;11050;52.222;20.916;2022-07-23T08:35:36;100111.47;;;30.84;42.92
21779;BME280;11050;52.222;20.916;2022-07-23T08:38:06;100102.13;;;30.83;42.60
21779;BME280;11050;52.222;20.916;2022-07-23T08:40:38;100117.53;;;30.82;41.89
21779;BME280;11050;52.222;20.916;2022-07-23T08:43:07;100114.25;;;30.80;41.12
21779;BME280;11050;52.222;20.916;2022-07-23T08:45:38;100117.13;;;30.84;42.23
21779;BME280;11050;52.222;20.916;2022-07-23T08:48:12;100102.53;;;30.85;42.75
21779;BME280;11050;52.222;20.916;2022-07-23T08:50:48;100117.97;;;30.88;42.03
21779;BME280;11050;52.222;20.916;2022-07-23T08:53:16;100111.47;;;30.87;41.19
21779;BME280;11050;52.222;20.916;2022-07-23T08:55:51;100110.72;;;30.94;40.17
21779;BME280;11050;52.222;20.916;2022-07-23T08:58:18;100110.75;;;30.97;40.83
21779;BME280;11050;52.222;20.916;2022-07-23T09:00:45;100106.78;;;31.09;40.38
21779;BME280;11050;52.222;20.916;2022-07-23T09:05:46;100108.47;;;31.24;39.83
21779;BME280;11050;52.222;20.916;2022-07-23T09:08:38;100111.38;;;31.34;40.09
21779;BME280;11050;52.222;20.916;2022-07-23T09:11:13;100099.97;;;31.24;39.58
21779;BME280;11050;52.222;20.916;2022-07-23T09:13:53;100102.38;;;31.22;39.21
21779;BME280;11050;52.222;20.916;2022-07-23T09:16:29;100109.72;;;31.26;39.27
21779;BME280;11050;52.222;20.916;2022-07-23T09:19:07;100090.22;;;31.28;39.21
21779;BME280;11050;52.222;20.916;2022-07-23T09:21:35;100093.19;;;31.42;39.47
21779;BME280;11050;52.222;20.916;2022-07-23T09:24:10;100091.63;;;31.55;39.97
21779;BME280;11050;52.222;20.916;2022-07-23T09:26:46;100109.16;;;31.75;37.50
21779;BME280;11050;52.222;20.916;2022-07-23T09:29:25;100095.78;;;31.79;37.95
21779;BME280;11050;52.222;20.916;2022-07-23T09:31:59;100098.22;;;31.88;38.04
21779;BME280;11050;52.222;20.916;2022-07-23T09:34:28;100089.31;;;31.96;38.38
21779;BME280;11050;52.222;20.916;2022-07-23T09:37:11;100093.81;;;32.08;37.15
21779;BME280;11050;52.222;20.916;2022-07-23T09:39:40;100079.22;;;32.20;37.04
21779;BME280;11050;52.222;20.916;2022-07-23T09:42:19;100087.34;;;32.25;37.56
21779;BME280;11050;52.222;20.916;2022-07-23T09:44:48;100095.09;;;32.28;36.21
21779;BME280;11050;52.222;20.916;2022-07-23T09:47:15;100102.38;;;32.29;34.78
21779;BME280;11050;52.222;20.916;2022-07-23T09:49:58;100089.38;;;32.21;35.63
21779;BME280;11050;52.222;20.916;2022-07-23T09:52:32;100077.16;;;32.10;35.29
21779;BME280;11050;52.222;20.916;2022-07-23T09:55:04;100078.81;;;32.11;33.54
21779;BME280;11050;52.222;20.916;2022-07-23T09:57:32;100073.13;;;32.18;33.57
21779;BME280;11050;52.222;20.916;2022-07-23T10:00:04;100085.31;;;32.32;34.44
21779;BME280;11050;52.222;20.916;2022-07-23T10:02:33;100076.41;;;32.41;34.94
21779;BME280;11050;52.222;20.916;2022-07-23T10:05:01;100073.16;;;32.49;35.39
21779;BME280;11050;52.222;20.916;2022-07-23T10:07:31;100071.50;;;32.66;36.07
21779;BME280;11050;52.222;20.916;2022-07-23T10:10:00;100061.34;;;32.83;35.11
21779;BME280;11050;52.222;20.916;2022-07-23T10:12:27;100073.94;;;32.82;34.88
21779;BME280;11050;52.222;20.916;2022-07-23T10:15:06;100068.25;;;32.92;33.75
21779;BME280;11050;52.222;20.916;2022-07-23T10:17:33;100066.22;;;33.03;34.30
21779;BME280;11050;52.222;20.916;2022-07-23T10:19:59;100067.78;;;33.22;32.87
21779;BME280;11050;52.222;20.916;2022-07-23T10:22:33;100065.69;;;33.36;31.95
21779;BME280;11050;52.222;20.916;2022-07-23T10:25:15;100070.16;;;33.41;30.32
21779;BME280;11050;52.222;20.916;2022-07-23T10:28:17;100064.00;;;33.57;30.91
21779;BME280;11050;52.222;20.916;2022-07-23T10:31:10;100064.78;;;33.61;30.09
21779;BME280;11050;52.222;20.916;2022-07-23T10:37:04;100062.56;;;34.03;31.84
21779;BME280;11050;52.222;20.916;2022-07-23T10:39:34;100080.03;;;34.09;30.93
21779;BME280;11050;52.222;20.916;2022-07-23T10:42:17;100075.63;;;33.97;31.00
21779;BME280;11050;52.222;20.916;2022-07-23T10:44:47;100062.97;;;33.95;30.22
21779;BME280;11050;52.222;20.916;2022-07-23T10:47:27;100064.50;;;34.13;29.68
21779;BME280;11050;52.222;20.916;2022-07-23T10:50:26;100067.47;;;34.54;29.33
21779;BME280;11050;52.222;20.916;2022-07-23T10:57:58;100064.97;;;35.38;28.78
21779;BME280;11050;52.222;20.916;2022-07-23T11:00:31;100064.72;;;35.59;28.31
21779;BME280;11050;52.222;20.916;2022-07-23T11:03:00;100058.56;;;35.94;28.33
21779;BME280;11050;52.222;20.916;2022-07-23T11:05:43;100058.91;;;36.49;26.92
21779;BME280;11050;52.222;20.916;2022-07-23T11:08:12;100057.72;;;36.93;27.72
21779;BME280;11050;52.222;20.916;2022-07-23T11:16:17;100067.22;;;37.33;25.58
21779;BME280;11050;52.222;20.916;2022-07-23T11:24:16;100070.03;;;38.43;24.11
21779;BME280;11050;52.222;20.916;2022-07-23T11:27:00;100069.41;;;39.00;23.24
21779;BME280;11050;52.222;20.916;2022-07-23T11:32:29;100069.31;;;40.02;23.02
21779;BME280;11050;52.222;20.916;2022-07-23T11:34:56;100044.53;;;40.17;22.73
21779;BME280;11050;52.222;20.916;2022-07-23T11:37:32;100067.25;;;40.40;21.98
21779;BME280;11050;52.222;20.916;2022-07-23T11:39:59;100060.56;;;40.31;22.61
21779;BME280;11050;52.222;20.916;2022-07-23T11:42:26;100065.50;;;40.55;21.68
21779;BME280;11050;52.222;20.916;2022-07-23T11:44:52;100061.34;;;41.03;21.54
21779;BME280;11050;52.222;20.916;2022-07-23T11:47:24;100059.34;;;41.47;20.74
21779;BME280;11050;52.222;20.916;2022-07-23T11:50:01;100062.09;;;41.94;20.45
21779;BME280;11050;52.222;20.916;2022-07-23T11:52:28;100062.84;;;42.16;19.27
21779;BME280;11050;52.222;20.916;2022-07-23T11:54:59;100055.75;;;42.48;20.02
21779;BME280;11050;52.222;20.916;2022-07-23T11:57:35;100046.34;;;42.74;19.31
21779;BME280;11050;52.222;20.916;2022-07-23T12:00:16;100043.09;;;42.54;19.46
21779;BME280;11050;52.222;20.916;2022-07-23T12:02:46;100049.38;;;42.62;19.39
21779;BME280;11050;52.222;20.916;2022-07-23T12:05:15;100037.50;;;42.78;18.29
21779;BME280;11050;52.222;20.916;2022-07-23T12:07:44;100046.22;;;42.87;18.79
21779;BME280;11050;52.222;20.916;2022-07-23T12:12:54;100025.03;;;43.35;18.42
21779;BME280;11050;52.222;20.916;2022-07-23T12:15:25;100029.66;;;43.69;18.51
21779;BME280;11050;52.222;20.916;2022-07-23T12:17:53;100025.72;;;43.81;18.01
21779;BME280;11050;52.222;20.916;2022-07-23T12:20:26;100020.69;;;43.99;17.78
21779;BME280;11050;52.222;20.916;2022-07-23T12:23:01;100018.03;;;44.52;17.99
21779;BME280;11050;52.222;20.916;2022-07-23T12:25:32;100010.75;;;44.57;17.48
21779;BME280;11050;52.222;20.916;2022-07-23T12:30:45;100016.97;;;44.08;17.85
21779;BME280;11050;52.222;20.916;2022-07-23T12:33:15;100011.03;;;44.02;18.44
21779;BME280;11050;52.222;20.916;2022-07-23T12:35:47;100005.19;;;44.11;17.87
21779;BME280;11050;52.222;20.916;2022-07-23T12:38:17;99997.81;;;44.10;17.53
21779;BME280;11050;52.222;20.916;2022-07-23T12:40:46;99995.78;;;44.26;18.25
21779;BME280;11050;52.222;20.916;2022-07-23T12:43:29;99999.16;;;44.57;17.27
21779;BME280;11050;52.222;20.916;2022-07-23T12:46:20;99994.69;;;45.32;17.02
21779;BME280;11050;52.222;20.916;2022-07-23T12:48:51;99994.13;;;46.01;16.00
21779;BME280;11050;52.222;20.916;2022-07-23T12:51:18;99985.03;;;46.28;15.34
21779;BME280;11050;52.222;20.916;2022-07-23T12:53:49;99978.50;;;46.19;15.75
21779;BME280;11050;52.222;20.916;2022-07-23T12:56:33;99971.88;;;46.53;16.14
21779;BME280;11050;52.222;20.916;2022-07-23T12:59:13;99973.38;;;46.83;15.51
21779;BME280;11050;52.222;20.916;2022-07-23T13:01:54;99967.94;;;46.70;15.38
21779;BME280;11050;52.222;20.916;2022-07-23T13:04:22;99959.47;;;46.18;16.22
21779;BME280;11050;52.222;20.916;2022-07-23T13:06:55;99954.53;;;45.89;15.83
21779;BME280;11050;52.222;20.916;2022-07-23T13:09:30;99943.50;;;45.93;15.97
21779;BME280;11050;52.222;20.916;2022-07-23T13:11:57;99950.63;;;45.77;16.12
21779;BME280;11050;52.222;20.916;2022-07-23T13:14:25;99955.47;;;45.51;16.93
21779;BME280;11050;52.222;20.916;2022-07-23T13:16:53;99948.03;;;45.36;16.18